createdAt,value
2023-03-07T00:03:49.269Z,8.03
2023-03-07T00:06:17.974Z,7.88
2023-03-07T00:08:45.629Z,7.89
2023-03-07T00:11:15.408Z,7.93
2023-03-07T00:13:43.501Z,8.10
2023-03-07T00:16:15.232Z,8.00
2023-03-07T00:18:49.913Z,8.04
2023-03-07T00:21:22.670Z,8.16
2023-03-07T00:23:53.171Z,8.14
2023-03-07T00:26:28.876Z,7.97
2023-03-07T00:29:59.737Z,8.38
2023-03-07T00:32:51.444Z,8.48
2023-03-07T00:35:19.600Z,8.27
2023-03-07T00:37:47.266Z,8.31
2023-03-07T00:40:16.003Z,8.27
2023-03-07T00:42:43.524Z,8.09
2023-03-07T00:45:11.420Z,8.04
2023-03-07T00:47:42.828Z,8.00
2023-03-07T00:51:05.475Z,8.13
2023-03-07T00:53:36.033Z,8.00
2023-03-07T00:56:24.083Z,7.98
2023-03-07T00:58:59.468Z,8.03
2023-03-07T01:01:28.218Z,7.73
2023-03-07T01:03:57.382Z,7.96
2023-03-07T01:06:32.429Z,7.82
2023-03-07T01:09:04.387Z,7.85
2023-03-07T01:11:34.683Z,7.74
2023-03-07T01:14:06.312Z,7.61
2023-03-07T01:16:38.282Z,7.71
2023-03-07T01:19:08.729Z,7.70
2023-03-07T01:21:39.480Z,7.69
2023-03-07T01:24:10.316Z,7.73
2023-03-07T01:26:38.139Z,7.79
2023-03-07T01:29:09.190Z,7.70
2023-03-07T01:31:40.868Z,7.65
2023-03-07T01:34:09.607Z,7.73
2023-03-07T01:36:38.157Z,7.66
2023-03-07T01:39:17.954Z,7.78
2023-03-07T01:42:00.010Z,7.81
2023-03-07T01:45:26.980Z,7.85
2023-03-07T01:47:54.913Z,7.87
2023-03-07T01:50:23.350Z,7.89
2023-03-07T01:52:54.543Z,7.87
2023-03-07T01:55:26.934Z,7.72
2023-03-07T02:03:42.017Z,7.91
2023-03-07T02:06:12.768Z,7.84
2023-03-07T02:08:41.589Z,7.62
2023-03-07T02:11:11.383Z,7.78
2023-03-07T02:13:39.132Z,7.57
2023-03-07T02:16:09.475Z,7.67
2023-03-07T02:18:43.823Z,7.61
2023-03-07T02:21:55.349Z,7.56
2023-03-07T02:24:45.694Z,7.43
2023-03-07T02:27:14.264Z,7.40
2023-03-07T02:29:42.727Z,7.35
2023-03-07T02:32:11.376Z,7.25
2023-03-07T02:34:39.774Z,7.15
2023-03-07T02:37:28.049Z,7.20
2023-03-07T02:39:59.587Z,7.23
2023-03-07T02:42:31.973Z,7.20
2023-03-07T02:45:14.557Z,7.25
2023-03-07T02:47:48.057Z,7.30
2023-03-07T02:50:25.059Z,7.26
2023-03-07T02:52:55.569Z,7.21
2023-03-07T02:55:23.661Z,7.27
2023-03-07T02:57:59.214Z,7.22
2023-03-07T03:00:29.268Z,7.10
2023-03-07T03:03:01.517Z,7.13
2023-03-07T03:05:31.597Z,6.95
2023-03-07T03:08:02.712Z,6.97
2023-03-07T03:10:35.725Z,6.96
2023-03-07T03:13:12.646Z,6.91
2023-03-07T03:16:02.063Z,7.10
2023-03-07T03:18:36.886Z,6.99
2023-03-07T03:21:12.524Z,7.10
2023-03-07T03:23:41.634Z,7.00
2023-03-07T03:26:14.382Z,6.96
2023-03-07T03:28:43.808Z,6.92
2023-03-07T03:31:17.302Z,7.07
2023-03-07T03:33:45.290Z,6.94
2023-03-07T03:36:16.672Z,7.11
2023-03-07T03:38:48.312Z,7.10
2023-03-07T03:41:16.360Z,7.16
2023-03-07T03:43:45.402Z,7.06
2023-03-07T03:46:14.987Z,7.03
2023-03-07T03:48:42.874Z,7.11
2023-03-07T03:51:17.326Z,7.10
2023-03-07T03:53:48.134Z,7.12
2023-03-07T03:56:23.842Z,7.10
2023-03-07T03:58:59.116Z,6.94
2023-03-07T04:01:28.552Z,7.10
2023-03-07T04:03:59.136Z,6.94
2023-03-07T04:06:32.150Z,7.05
2023-03-07T04:09:03.725Z,6.97
2023-03-07T04:11:31.422Z,7.01
2023-03-07T04:13:59.560Z,7.12
2023-03-07T04:16:27.599Z,7.12
2023-03-07T04:18:55.683Z,7.07
2023-03-07T04:21:25.974Z,7.11
2023-03-07T04:23:58.563Z,7.12
2023-03-07T04:26:30.958Z,7.17
2023-03-07T04:28:58.917Z,7.00
2023-03-07T04:31:32.473Z,7.03
2023-03-07T04:34:03.393Z,6.97
2023-03-07T04:36:31.563Z,6.98
2023-03-07T04:39:03.524Z,6.97
2023-03-07T04:41:32.707Z,6.88
2023-03-07T04:44:07.952Z,6.99
2023-03-07T04:46:37.226Z,6.99
2023-03-07T04:49:05.601Z,6.89
2023-03-07T04:51:34.465Z,6.96
2023-03-07T04:54:02.565Z,6.83
2023-03-07T04:56:32.577Z,7.11
2023-03-07T04:59:01.898Z,7.05
2023-03-07T05:01:31.145Z,7.05
2023-03-07T05:04:10.890Z,6.96
2023-03-07T05:06:43.323Z,7.01
2023-03-07T05:09:11.573Z,7.06
2023-03-07T05:11:40.767Z,7.08
2023-03-07T05:14:10.882Z,7.11
2023-03-07T05:16:38.560Z,7.05
2023-03-07T05:19:09.548Z,7.10
2023-03-07T05:22:06.711Z,7.20
2023-03-07T05:25:26.106Z,7.21
2023-03-07T05:28:27.763Z,7.28
2023-03-07T05:31:01.940Z,7.31
2023-03-07T05:33:29.708Z,7.35
2023-03-07T05:36:00.421Z,7.37
2023-03-07T05:38:32.428Z,7.37
2023-03-07T05:41:00.179Z,7.51
2023-03-07T05:43:28.285Z,7.47
2023-03-07T05:45:56.805Z,7.52
2023-03-07T05:48:24.397Z,7.64
2023-03-07T05:50:52.359Z,7.67
2023-03-07T05:53:20.489Z,7.57
2023-03-07T05:55:49.157Z,7.50
2023-03-07T05:58:18.681Z,7.63
2023-03-07T06:00:48.437Z,7.66
2023-03-07T06:03:21.372Z,7.80
2023-03-07T06:05:50.784Z,7.88
2023-03-07T06:08:18.248Z,8.09
2023-03-07T06:10:53.233Z,8.26
2023-03-07T06:13:24.534Z,8.85
2023-03-07T06:15:55.681Z,9.96
2023-03-07T06:18:26.803Z,11.65
2023-03-07T06:21:06.764Z,13.42
2023-03-07T06:23:56.789Z,14.49
2023-03-07T06:26:26.101Z,15.46
2023-03-07T06:28:55.534Z,15.47
2023-03-07T06:31:27.073Z,15.66
2023-03-07T06:33:57.503Z,16.16
2023-03-07T06:36:26.735Z,17.50
2023-03-07T06:38:58.011Z,18.39
2023-03-07T06:41:26.625Z,18.14
2023-03-07T06:43:56.014Z,18.93
2023-03-07T06:46:30.345Z,19.26
2023-03-07T06:48:59.214Z,19.39
2023-03-07T06:51:30.302Z,19.36
2023-03-07T06:54:01.939Z,18.84
2023-03-07T06:56:58.165Z,19.20
2023-03-07T06:59:26.456Z,19.30
2023-03-07T07:01:54.301Z,19.30
2023-03-07T07:04:24.113Z,19.27
2023-03-07T07:06:53.135Z,19.26
2023-03-07T07:09:20.712Z,18.70
2023-03-07T07:11:48.759Z,18.69
2023-03-07T07:14:16.363Z,20.07
2023-03-07T07:16:45.326Z,20.02
2023-03-07T07:19:14.973Z,19.38
2023-03-07T07:21:42.964Z,19.76
2023-03-07T07:24:14.370Z,19.93
2023-03-07T07:26:42.475Z,19.36
2023-03-07T07:29:11.096Z,19.99
2023-03-07T07:31:45.472Z,19.52
2023-03-07T07:34:14.322Z,19.50
2023-03-07T07:36:57.475Z,19.39
2023-03-07T07:39:29.219Z,19.07
2023-03-07T07:42:00.908Z,18.97
2023-03-07T07:44:37.539Z,19.71
2023-03-07T07:47:20.367Z,19.37
2023-03-07T07:49:51.651Z,19.53
2023-03-07T07:52:23.254Z,19.27
2023-03-07T07:54:57.201Z,19.02
2023-03-07T07:57:32.872Z,18.69
2023-03-07T08:00:01.425Z,18.96
2023-03-07T08:02:59.559Z,18.97
2023-03-07T08:05:32.056Z,19.05
2023-03-07T08:08:01.248Z,19.04
2023-03-07T08:10:33.966Z,17.56
2023-03-07T08:13:01.696Z,18.17
2023-03-07T08:15:30.223Z,17.75
2023-03-07T08:18:22.086Z,17.64
2023-03-07T08:21:30.460Z,18.05
2023-03-07T08:24:01.335Z,17.94
2023-03-07T08:27:24.758Z,17.18
2023-03-07T08:30:17.299Z,17.78
2023-03-07T08:32:57.601Z,18.22
2023-03-07T08:36:18.314Z,18.55
2023-03-07T08:42:03.666Z,18.79
2023-03-07T08:44:32.740Z,17.42
2023-03-07T08:47:29.991Z,16.52
2023-03-07T08:50:21.440Z,16.54
2023-03-07T08:52:48.974Z,17.03
2023-03-07T08:55:20.378Z,17.40
2023-03-07T08:57:51.523Z,17.86
2023-03-07T09:07:26.931Z,17.94
2023-03-07T09:10:45.994Z,17.12
2023-03-07T09:13:43.088Z,17.64
2023-03-07T09:16:46.098Z,17.79
2023-03-07T09:19:33.711Z,18.57
2023-03-07T09:22:03.502Z,18.38
2023-03-07T09:24:32.994Z,17.85
2023-03-07T09:27:02.740Z,18.34
2023-03-07T09:29:33.027Z,18.48
2023-03-07T09:32:07.235Z,18.45
2023-03-07T09:34:35.218Z,18.55
2023-03-07T09:37:03.376Z,19.00
2023-03-07T09:39:35.398Z,18.76
2023-03-07T09:42:14.836Z,18.11
2023-03-07T09:44:53.171Z,17.22
2023-03-07T09:47:51.715Z,17.06
2023-03-07T09:50:41.010Z,17.23
2023-03-07T09:53:23.200Z,17.49
2023-03-07T09:55:54.845Z,17.66
2023-03-07T09:58:26.139Z,17.77
2023-03-07T10:00:58.557Z,17.32
2023-03-07T10:04:05.116Z,17.56
2023-03-07T10:06:32.798Z,17.57
2023-03-07T10:09:02.449Z,18.03
2023-03-07T10:11:52.353Z,18.99
2023-03-07T10:14:37.940Z,19.71
2023-03-07T10:17:44.739Z,20.12
2023-03-07T10:20:36.330Z,20.02
2023-03-07T10:23:29.202Z,19.97
2023-03-07T10:26:09.986Z,20.61
2023-03-07T10:28:42.568Z,20.33
2023-03-07T10:31:39.921Z,20.37
2023-03-07T10:34:27.094Z,20.46
2023-03-07T10:37:16.875Z,20.74
2023-03-07T10:39:56.411Z,19.25
2023-03-07T10:42:25.557Z,19.92
2023-03-07T10:44:53.467Z,20.03
2023-03-07T10:47:30.197Z,19.36
2023-03-07T10:50:06.969Z,18.13
2023-03-07T10:52:46.929Z,18.13
2023-03-07T10:55:49.497Z,18.27
2023-03-07T10:58:32.862Z,18.78
2023-03-07T11:01:11.385Z,18.63
2023-03-07T11:03:52.652Z,18.08
2023-03-07T11:06:40.654Z,17.84
2023-03-07T11:09:36.563Z,17.89
2023-03-07T11:12:22.419Z,18.18
2023-03-07T11:15:09.378Z,18.17
2023-03-07T11:17:44.031Z,18.93
2023-03-07T11:20:30.664Z,19.57
2023-03-07T11:23:17.188Z,20.18
2023-03-07T11:25:45.680Z,20.27
2023-03-07T11:28:33.685Z,20.83
2023-03-07T11:31:49.238Z,20.71
2023-03-07T11:34:35.403Z,20.06
2023-03-07T11:37:33.856Z,20.05
2023-03-07T11:40:23.770Z,19.26
2023-03-07T11:43:45.148Z,18.38
2023-03-07T11:46:31.928Z,18.42
2023-03-07T11:49:33.540Z,18.54
2023-03-07T11:52:31.209Z,18.91
2023-03-07T11:55:25.756Z,19.36
2023-03-07T11:57:56.523Z,19.08
2023-03-07T12:00:56.461Z,18.79
2023-03-07T12:03:37.809Z,19.05
2023-03-07T12:06:35.932Z,18.83
2023-03-07T12:09:23.899Z,19.35
2023-03-07T12:12:00.477Z,19.60
2023-03-07T12:14:47.733Z,19.37
2023-03-07T12:17:39.335Z,19.31
2023-03-07T12:20:53.106Z,19.61
2023-03-07T12:23:45.168Z,19.84
2023-03-07T12:26:28.180Z,19.92
2023-03-07T12:30:03.742Z,20.33
2023-03-07T12:32:46.603Z,20.04
2023-03-07T12:35:48.756Z,20.23
2023-03-07T12:38:36.513Z,19.82
2023-03-07T12:41:26.986Z,19.67
2023-03-07T12:44:02.746Z,18.35
2023-03-07T12:46:56.769Z,17.41
2023-03-07T12:49:47.867Z,17.20
2023-03-07T12:52:29.191Z,17.24
2023-03-07T12:55:04.898Z,17.29
2023-03-07T12:57:43.782Z,17.14
2023-03-07T13:00:16.749Z,17.00
2023-03-07T13:02:58.502Z,17.48
2023-03-07T13:05:26.661Z,17.47
2023-03-07T13:07:55.407Z,17.50
2023-03-07T13:10:25.081Z,17.63
2023-03-07T13:12:53.540Z,17.56
2023-03-07T13:15:21.236Z,17.76
2023-03-07T13:17:48.516Z,17.66
2023-03-07T13:20:41.850Z,18.19
2023-03-07T13:23:39.079Z,18.22
2023-03-07T13:26:11.419Z,18.15
2023-03-07T13:28:43.021Z,18.23
2023-03-07T13:31:26.955Z,18.37
2023-03-07T13:33:54.469Z,18.25
2023-03-07T13:36:38.045Z,18.13
2023-03-07T13:39:35.952Z,17.61
2023-03-07T13:42:03.862Z,17.30
2023-03-07T13:44:39.922Z,16.78
2023-03-07T13:47:43.534Z,16.91
2023-03-07T13:50:35.952Z,16.84
2023-03-07T13:53:13.856Z,16.56
2023-03-07T13:55:46.809Z,16.98
2023-03-07T13:58:25.603Z,16.95
2023-03-07T14:01:01.192Z,16.94
2023-03-07T14:03:42.239Z,17.16
2023-03-07T14:06:21.764Z,17.12
2023-03-07T14:08:51.434Z,17.05
2023-03-07T14:12:09.173Z,17.29
2023-03-07T14:15:34.274Z,16.97
2023-03-07T14:18:15.466Z,16.90
2023-03-07T14:21:03.704Z,17.21
2023-03-07T14:23:37.707Z,17.32
2023-03-07T14:26:16.508Z,17.27
2023-03-07T14:28:52.060Z,17.65
2023-03-07T14:31:30.562Z,17.53
2023-03-07T14:33:58.909Z,17.55
2023-03-07T14:36:31.699Z,17.49
2023-03-07T14:39:04.524Z,17.74
2023-03-07T14:41:55.687Z,17.50
2023-03-07T14:44:36.720Z,17.59
2023-03-07T14:47:26.428Z,17.71
2023-03-07T14:50:23.640Z,17.38
2023-03-07T14:52:58.104Z,17.66
2023-03-07T14:55:31.659Z,17.33
2023-03-07T14:57:59.625Z,16.80
2023-03-07T15:00:29.597Z,16.52
2023-03-07T15:03:02.005Z,16.50
2023-03-07T15:05:33.534Z,16.38
2023-03-07T15:08:01.502Z,16.42
2023-03-07T15:10:42.148Z,16.34
2023-03-07T15:13:24.669Z,16.19
2023-03-07T15:15:56.563Z,16.13
2023-03-07T15:18:31.457Z,16.02
2023-03-07T15:21:01.264Z,15.97
2023-03-07T15:23:30.104Z,15.94
2023-03-07T15:26:05.670Z,15.89
2023-03-07T15:28:40.506Z,15.85
2023-03-07T15:31:11.767Z,15.96
2023-03-07T15:33:39.757Z,16.03
2023-03-07T15:36:13.508Z,15.99
2023-03-07T15:38:46.010Z,15.86
2023-03-07T15:41:36.056Z,15.95
2023-03-07T15:44:13.575Z,16.01
2023-03-07T15:46:53.665Z,15.93
2023-03-07T15:49:43.041Z,16.07
2023-03-07T15:52:40.839Z,16.04
2023-03-07T15:55:28.648Z,15.77
2023-03-07T15:58:05.735Z,15.60
2023-03-07T16:00:41.888Z,15.50
2023-03-07T16:03:31.341Z,15.44
2023-03-07T16:06:29.844Z,15.34
2023-03-07T16:08:57.889Z,15.08
2023-03-07T16:11:25.567Z,14.91
2023-03-07T16:13:55.984Z,14.74
2023-03-07T16:16:30.477Z,14.59
2023-03-07T16:19:00.870Z,14.51
2023-03-07T16:21:28.696Z,14.41
2023-03-07T16:23:56.214Z,14.22
2023-03-07T16:27:02.332Z,14.20
2023-03-07T16:29:36.775Z,14.25
2023-03-07T16:32:17.893Z,14.05
2023-03-07T16:34:45.426Z,13.95
2023-03-07T16:37:13.689Z,13.90
2023-03-07T16:39:49.860Z,13.86
2023-03-07T16:42:36.020Z,13.78
2023-03-07T16:45:37.663Z,13.64
2023-03-07T16:48:42.602Z,13.64
2023-03-07T16:51:25.875Z,13.53
2023-03-07T16:54:03.575Z,13.42
2023-03-07T16:57:12.252Z,13.34
2023-03-07T16:59:56.098Z,13.17
2023-03-07T17:02:40.428Z,13.15
2023-03-07T17:05:31.212Z,13.04
2023-03-07T17:08:12.675Z,13.04
2023-03-07T17:10:54.297Z,13.06
2023-03-07T17:13:30.109Z,12.98
2023-03-07T17:16:03.170Z,12.87
2023-03-07T17:18:33.921Z,12.87
2023-03-07T17:21:02.021Z,12.84
2023-03-07T17:23:30.083Z,12.74
2023-03-07T17:25:58.643Z,12.75
2023-03-07T17:28:26.090Z,12.93
2023-03-07T17:30:53.716Z,12.90
2023-03-07T17:33:49.982Z,12.64
2023-03-07T17:36:17.949Z,12.52
2023-03-07T17:38:48.458Z,12.38
2023-03-07T17:41:22.035Z,12.30
2023-03-07T17:43:50.795Z,12.16
2023-03-07T17:46:21.885Z,12.12
2023-03-07T17:48:54.415Z,11.98
2023-03-07T17:51:25.290Z,12.00
2023-03-07T17:56:39.560Z,11.79
2023-03-07T17:59:37.159Z,11.70
2023-03-07T18:02:37.946Z,11.70
2023-03-07T18:05:07.319Z,11.57
2023-03-07T18:07:36.807Z,11.51
2023-03-07T18:10:08.979Z,11.59
2023-03-07T18:12:46.467Z,11.37
2023-03-07T18:15:33.932Z,11.34
2023-03-07T18:18:01.634Z,11.29
2023-03-07T18:20:29.978Z,11.24
2023-03-07T18:23:00.305Z,11.22
2023-03-07T18:25:42.104Z,11.11
2023-03-07T18:28:42.219Z,10.92
2023-03-07T18:31:13.485Z,10.97
2023-03-07T18:33:42.212Z,11.08
2023-03-07T18:36:18.132Z,10.87
2023-03-07T18:38:47.441Z,10.89
2023-03-07T18:41:23.156Z,10.97
2023-03-07T18:43:58.386Z,10.82
2023-03-07T18:46:30.751Z,11.09
2023-03-07T18:49:02.980Z,10.93
2023-03-07T18:51:32.431Z,10.95
2023-03-07T18:54:06.428Z,10.95
2023-03-07T18:56:34.247Z,10.95
2023-03-07T18:59:01.644Z,10.94
2023-03-07T19:01:32.479Z,10.91
2023-03-07T19:04:03.700Z,10.98
2023-03-07T19:06:40.817Z,10.84
2023-03-07T19:09:14.198Z,10.83
2023-03-07T19:11:43.459Z,10.74
2023-03-07T19:14:11.141Z,10.87
2023-03-07T19:16:40.104Z,10.81
2023-03-07T19:19:07.487Z,10.72
2023-03-07T19:21:37.473Z,10.85
2023-03-07T19:24:09.175Z,10.90
2023-03-07T19:26:38.726Z,10.86
2023-03-07T19:29:06.296Z,10.92
2023-03-07T19:31:35.239Z,10.77
2023-03-07T19:34:05.208Z,10.90
2023-03-07T19:36:35.383Z,10.91
2023-03-07T19:39:05.075Z,10.79
2023-03-07T19:41:33.182Z,10.88
2023-03-07T19:44:01.487Z,11.02
2023-03-07T19:46:37.161Z,11.02
2023-03-07T19:49:05.553Z,11.12
2023-03-07T19:51:34.577Z,11.22
2023-03-07T19:54:09.413Z,11.23
2023-03-07T19:56:38.863Z,11.16
2023-03-07T19:59:09.669Z,11.28
2023-03-07T20:01:42.043Z,11.31
2023-03-07T20:04:13.994Z,11.23
2023-03-07T20:06:44.266Z,11.33
2023-03-07T20:09:13.860Z,11.38
2023-03-07T20:11:43.556Z,11.33
2023-03-07T20:14:42.929Z,11.31
2023-03-07T20:21:49.963Z,11.32
2023-03-07T20:24:18.961Z,11.37
2023-03-07T20:26:48.199Z,11.20
2023-03-07T20:29:16.819Z,11.32
2023-03-07T20:31:44.576Z,11.38
2023-03-07T20:34:14.238Z,11.37
2023-03-07T20:36:55.289Z,11.34
2023-03-07T20:39:48.294Z,11.35
2023-03-07T20:42:18.955Z,11.41
2023-03-07T20:44:48.274Z,11.38
2023-03-07T20:47:19.945Z,11.27
2023-03-07T20:49:47.593Z,11.29
2023-03-07T20:52:15.583Z,11.22
2023-03-07T20:54:49.416Z,11.29
2023-03-07T20:57:28.292Z,11.23
2023-03-07T21:03:12.931Z,11.21
2023-03-07T21:05:46.906Z,11.08
2023-03-07T21:08:21.589Z,11.10
2023-03-07T21:11:13.030Z,11.20
2023-03-07T21:14:07.821Z,11.27
2023-03-07T21:17:05.251Z,11.35
2023-03-07T21:19:37.954Z,11.38
2023-03-07T21:22:08.014Z,11.46
2023-03-07T21:24:37.355Z,11.37
2023-03-07T21:27:07.163Z,11.61
2023-03-07T21:29:38.102Z,11.66
2023-03-07T21:32:17.535Z,11.71
2023-03-07T21:34:46.985Z,11.71
2023-03-07T21:37:18.797Z,11.60
2023-03-07T21:39:49.515Z,11.80
2023-03-07T21:42:17.248Z,11.67
2023-03-07T21:44:55.570Z,11.78
2023-03-07T21:47:24.918Z,11.73
2023-03-07T21:50:25.541Z,11.84
2023-03-07T21:53:00.043Z,11.84
2023-03-07T21:55:28.985Z,11.80
2023-03-07T21:58:06.032Z,11.83
2023-03-07T22:01:16.257Z,11.79
2023-03-07T22:03:55.683Z,11.83
2023-03-07T22:06:31.758Z,11.75
2023-03-07T22:09:04.362Z,11.67
2023-03-07T22:11:43.878Z,11.63
2023-03-07T22:14:23.356Z,11.51
2023-03-07T22:17:29.773Z,11.54
2023-03-07T22:19:57.160Z,11.57
2023-03-07T22:22:24.825Z,11.34
2023-03-07T22:24:52.722Z,11.34
2023-03-07T22:27:20.735Z,11.41
2023-03-07T22:29:53.738Z,11.37
2023-03-07T22:32:24.267Z,11.48
2023-03-07T22:34:56.204Z,11.43
2023-03-07T22:40:31.538Z,11.33
2023-03-07T22:43:18.007Z,11.30
2023-03-07T22:45:56.749Z,11.15
2023-03-07T22:48:27.724Z,11.16
2023-03-07T22:51:09.638Z,11.03
2023-03-07T22:53:40.408Z,11.08
2023-03-07T22:56:16.782Z,10.97
2023-03-07T22:59:07.310Z,11.06
2023-03-07T23:01:34.863Z,11.06
2023-03-07T23:04:09.355Z,11.04
2023-03-07T23:06:38.131Z,11.04
2023-03-07T23:09:07.991Z,11.06
2023-03-07T23:11:36.194Z,11.07
2023-03-07T23:14:05.466Z,10.98
2023-03-07T23:16:33.695Z,10.97
2023-03-07T23:19:01.463Z,10.91
2023-03-07T23:21:32.166Z,10.97
2023-03-07T23:24:03.711Z,10.99
2023-03-07T23:26:34.891Z,10.85
2023-03-07T23:29:33.164Z,10.80
2023-03-07T23:32:03.914Z,10.83
2023-03-07T23:34:31.802Z,10.85
2023-03-07T23:37:02.295Z,10.88
2023-03-07T23:39:31.432Z,10.80
2023-03-07T23:42:08.218Z,10.83
2023-03-07T23:44:39.145Z,10.81
2023-03-07T23:47:10.343Z,10.78
2023-03-07T23:49:38.392Z,10.80
2023-03-07T23:52:06.293Z,10.69
2023-03-07T23:54:42.549Z,10.80
2023-03-07T23:57:09.944Z,10.76
2023-03-07T23:59:37.732Z,10.77
